sensor_id;sensor_type;location;lat;lon;timestamp;P1;durP1;ratioP1;P2;durP2;ratioP2
28766;SDS011;15921;52.034;20.650;2023-02-23T00:01:34;21.35;;;8.98;;
28766;SDS011;15921;52.034;20.650;2023-02-23T00:04:00;27.30;;;10.25;;
28766;SDS011;15921;52.034;20.650;2023-02-23T00:06:26;18.90;;;9.23;;
28766;SDS011;15921;52.034;20.650;2023-02-23T00:08:54;18.73;;;9.15;;
28766;SDS011;15921;52.034;20.650;2023-02-23T00:11:20;22.50;;;9.25;;
28766;SDS011;15921;52.034;20.650;2023-02-23T00:13:47;20.23;;;9.10;;
28766;SDS011;15921;52.034;20.650;2023-02-23T00:16:15;24.02;;;10.18;;
28766;SDS011;15921;52.034;20.650;2023-02-23T00:18:43;25.08;;;10.48;;
28766;SDS011;15921;52.034;20.650;2023-02-23T00:21:16;22.00;;;9.98;;
28766;SDS011;15921;52.034;20.650;2023-02-23T00:23:56;21.85;;;9.18;;
28766;SDS011;15921;52.034;20.650;2023-02-23T00:26:24;16.85;;;8.25;;
28766;SDS011;15921;52.034;20.650;2023-02-23T00:28:54;18.55;;;8.38;;
28766;SDS011;15921;52.034;20.650;2023-02-23T00:31:21;17.50;;;8.52;;
28766;SDS011;15921;52.034;20.650;2023-02-23T00:33:49;21.30;;;8.10;;
28766;SDS011;15921;52.034;20.650;2023-02-23T00:36:18;16.00;;;8.35;;
28766;SDS011;15921;52.034;20.650;2023-02-23T00:38:45;18.15;;;8.45;;
28766;SDS011;15921;52.034;20.650;2023-02-23T00:41:12;18.30;;;8.55;;
28766;SDS011;15921;52.034;20.650;2023-02-23T00:43:45;18.98;;;8.40;;
28766;SDS011;15921;52.034;20.650;2023-02-23T00:46:14;18.55;;;8.40;;
28766;SDS011;15921;52.034;20.650;2023-02-23T00:48:42;18.23;;;8.75;;
28766;SDS011;15921;52.034;20.650;2023-02-23T00:51:08;15.63;;;7.70;;
28766;SDS011;15921;52.034;20.650;2023-02-23T00:53:35;17.70;;;8.73;;
28766;SDS011;15921;52.034;20.650;2023-02-23T00:56:03;18.30;;;8.68;;
28766;SDS011;15921;52.034;20.650;2023-02-23T00:58:29;20.95;;;8.70;;
28766;SDS011;15921;52.034;20.650;2023-02-23T01:00:55;21.45;;;9.02;;
28766;SDS011;15921;52.034;20.650;2023-02-23T01:03:23;18.92;;;9.00;;
28766;SDS011;15921;52.034;20.650;2023-02-23T01:05:49;16.67;;;8.45;;
28766;SDS011;15921;52.034;20.650;2023-02-23T01:08:15;20.75;;;8.52;;
28766;SDS011;15921;52.034;20.650;2023-02-23T01:10:42;23.27;;;9.60;;
28766;SDS011;15921;52.034;20.650;2023-02-23T01:13:16;24.13;;;9.45;;
28766;SDS011;15921;52.034;20.650;2023-02-23T01:15:42;26.48;;;10.45;;
28766;SDS011;15921;52.034;20.650;2023-02-23T01:18:09;23.65;;;9.88;;
28766;SDS011;15921;52.034;20.650;2023-02-23T01:20:35;25.38;;;10.25;;
28766;SDS011;15921;52.034;20.650;2023-02-23T01:23:01;22.75;;;9.27;;
28766;SDS011;15921;52.034;20.650;2023-02-23T01:25:28;22.23;;;9.82;;
28766;SDS011;15921;52.034;20.650;2023-02-23T01:27:53;18.88;;;8.63;;
28766;SDS011;15921;52.034;20.650;2023-02-23T01:30:19;26.20;;;9.57;;
28766;SDS011;15921;52.034;20.650;2023-02-23T01:32:45;21.42;;;8.73;;
28766;SDS011;15921;52.034;20.650;2023-02-23T01:35:11;21.35;;;8.35;;
28766;SDS011;15921;52.034;20.650;2023-02-23T01:37:38;20.77;;;9.80;;
28766;SDS011;15921;52.034;20.650;2023-02-23T01:40:05;22.48;;;9.15;;
28766;SDS011;15921;52.034;20.650;2023-02-23T01:42:41;22.42;;;8.95;;
28766;SDS011;15921;52.034;20.650;2023-02-23T01:45:27;19.65;;;7.95;;
28766;SDS011;15921;52.034;20.650;2023-02-23T01:48:00;17.55;;;8.55;;
28766;SDS011;15921;52.034;20.650;2023-02-23T01:50:42;21.17;;;10.00;;
28766;SDS011;15921;52.034;20.650;2023-02-23T01:53:20;19.88;;;8.98;;
28766;SDS011;15921;52.034;20.650;2023-02-23T01:55:50;24.50;;;9.65;;
28766;SDS011;15921;52.034;20.650;2023-02-23T01:58:19;19.27;;;7.90;;
28766;SDS011;15921;52.034;20.650;2023-02-23T02:00:57;19.63;;;7.95;;
28766;SDS011;15921;52.034;20.650;2023-02-23T02:03:37;20.15;;;8.50;;
28766;SDS011;15921;52.034;20.650;2023-02-23T02:06:24;24.08;;;8.05;;
28766;SDS011;15921;52.034;20.650;2023-02-23T02:08:55;18.42;;;8.05;;
28766;SDS011;15921;52.034;20.650;2023-02-23T02:11:30;20.35;;;8.32;;
28766;SDS011;15921;52.034;20.650;2023-02-23T02:14:09;22.80;;;8.32;;
28766;SDS011;15921;52.034;20.650;2023-02-23T02:30:48;23.88;;;7.80;;
28766;SDS011;15921;52.034;20.650;2023-02-23T02:41:36;19.05;;;8.63;;
28766;SDS011;15921;52.034;20.650;2023-02-23T02:47:00;18.70;;;8.13;;
28766;SDS011;15921;52.034;20.650;2023-02-23T02:49:36;16.88;;;8.32;;
28766;SDS011;15921;52.034;20.650;2023-02-23T02:52:15;19.20;;;8.55;;
28766;SDS011;15921;52.034;20.650;2023-02-23T02:54:47;22.58;;;9.07;;
28766;SDS011;15921;52.034;20.650;2023-02-23T02:57:17;24.80;;;10.05;;
28766;SDS011;15921;52.034;20.650;2023-02-23T02:59:46;20.00;;;9.25;;
28766;SDS011;15921;52.034;20.650;2023-02-23T03:02:31;24.13;;;10.15;;
28766;SDS011;15921;52.034;20.650;2023-02-23T03:05:18;21.52;;;9.73;;
28766;SDS011;15921;52.034;20.650;2023-02-23T03:11:05;20.98;;;10.52;;
28766;SDS011;15921;52.034;20.650;2023-02-23T03:16:50;24.75;;;9.57;;
28766;SDS011;15921;52.034;20.650;2023-02-23T03:19:47;22.75;;;10.48;;
28766;SDS011;15921;52.034;20.650;2023-02-23T03:22:38;20.55;;;9.95;;
28766;SDS011;15921;52.034;20.650;2023-02-23T03:25:34;24.00;;;12.43;;
28766;SDS011;15921;52.034;20.650;2023-02-23T03:28:26;27.02;;;11.98;;
28766;SDS011;15921;52.034;20.650;2023-02-23T03:34:42;34.28;;;15.88;;
28766;SDS011;15921;52.034;20.650;2023-02-23T03:37:34;25.05;;;13.50;;
28766;SDS011;15921;52.034;20.650;2023-02-23T03:40:24;22.73;;;9.73;;
28766;SDS011;15921;52.034;20.650;2023-02-23T03:43:14;21.90;;;9.70;;
28766;SDS011;15921;52.034;20.650;2023-02-23T03:46:06;21.98;;;9.68;;
28766;SDS011;15921;52.034;20.650;2023-02-23T03:48:53;21.73;;;9.57;;
28766;SDS011;15921;52.034;20.650;2023-02-23T03:51:40;20.52;;;9.43;;
28766;SDS011;15921;52.034;20.650;2023-02-23T03:54:38;20.75;;;10.43;;
28766;SDS011;15921;52.034;20.650;2023-02-23T03:57:26;24.25;;;11.05;;
28766;SDS011;15921;52.034;20.650;2023-02-23T04:00:15;23.73;;;11.25;;
28766;SDS011;15921;52.034;20.650;2023-02-23T04:03:04;21.45;;;12.23;;
28766;SDS011;15921;52.034;20.650;2023-02-23T04:05:50;25.50;;;11.00;;
28766;SDS011;15921;52.034;20.650;2023-02-23T04:08:36;22.92;;;11.10;;
28766;SDS011;15921;52.034;20.650;2023-02-23T04:11:30;24.50;;;11.60;;
28766;SDS011;15921;52.034;20.650;2023-02-23T04:14:31;25.02;;;11.65;;
28766;SDS011;15921;52.034;20.650;2023-02-23T04:17:02;23.42;;;11.25;;
28766;SDS011;15921;52.034;20.650;2023-02-23T04:19:30;25.75;;;12.05;;
28766;SDS011;15921;52.034;20.650;2023-02-23T04:21:55;21.30;;;10.88;;
28766;SDS011;15921;52.034;20.650;2023-02-23T04:24:21;22.98;;;11.85;;
28766;SDS011;15921;52.034;20.650;2023-02-23T04:26:47;25.42;;;11.80;;
28766;SDS011;15921;52.034;20.650;2023-02-23T04:29:13;18.58;;;9.10;;
28766;SDS011;15921;52.034;20.650;2023-02-23T04:31:39;20.95;;;10.90;;
28766;SDS011;15921;52.034;20.650;2023-02-23T04:34:05;21.95;;;9.55;;
28766;SDS011;15921;52.034;20.650;2023-02-23T04:36:32;23.05;;;10.82;;
28766;SDS011;15921;52.034;20.650;2023-02-23T04:38:58;21.25;;;9.50;;
28766;SDS011;15921;52.034;20.650;2023-02-23T04:41:23;23.08;;;9.65;;
28766;SDS011;15921;52.034;20.650;2023-02-23T04:43:49;23.02;;;10.32;;
28766;SDS011;15921;52.034;20.650;2023-02-23T04:46:15;22.08;;;9.52;;
28766;SDS011;15921;52.034;20.650;2023-02-23T04:48:40;20.38;;;9.80;;
28766;SDS011;15921;52.034;20.650;2023-02-23T04:51:06;19.33;;;9.13;;
28766;SDS011;15921;52.034;20.650;2023-02-23T04:53:31;21.25;;;10.32;;
28766;SDS011;15921;52.034;20.650;2023-02-23T04:55:57;23.40;;;10.55;;
28766;SDS011;15921;52.034;20.650;2023-02-23T04:58:23;21.55;;;9.38;;
28766;SDS011;15921;52.034;20.650;2023-02-23T05:00:48;21.27;;;9.40;;
28766;SDS011;15921;52.034;20.650;2023-02-23T05:03:14;25.27;;;9.52;;
28766;SDS011;15921;52.034;20.650;2023-02-23T05:05:41;22.63;;;8.90;;
28766;SDS011;15921;52.034;20.650;2023-02-23T05:08:07;23.38;;;9.70;;
28766;SDS011;15921;52.034;20.650;2023-02-23T05:10:33;22.13;;;9.60;;
28766;SDS011;15921;52.034;20.650;2023-02-23T05:12:59;23.73;;;9.60;;
28766;SDS011;15921;52.034;20.650;2023-02-23T05:15:26;19.83;;;9.57;;
28766;SDS011;15921;52.034;20.650;2023-02-23T05:17:52;23.23;;;10.15;;
28766;SDS011;15921;52.034;20.650;2023-02-23T05:20:19;25.35;;;9.98;;
28766;SDS011;15921;52.034;20.650;2023-02-23T05:22:46;24.98;;;10.02;;
28766;SDS011;15921;52.034;20.650;2023-02-23T05:25:11;26.42;;;12.10;;
28766;SDS011;15921;52.034;20.650;2023-02-23T05:27:37;25.77;;;10.98;;
28766;SDS011;15921;52.034;20.650;2023-02-23T05:30:04;24.73;;;10.60;;
28766;SDS011;15921;52.034;20.650;2023-02-23T05:32:32;22.48;;;10.95;;
28766;SDS011;15921;52.034;20.650;2023-02-23T05:34:57;37.38;;;16.73;;
28766;SDS011;15921;52.034;20.650;2023-02-23T05:37:23;29.25;;;12.55;;
28766;SDS011;15921;52.034;20.650;2023-02-23T05:39:48;27.50;;;11.80;;
28766;SDS011;15921;52.034;20.650;2023-02-23T05:42:14;31.38;;;14.00;;
28766;SDS011;15921;52.034;20.650;2023-02-23T05:44:40;28.60;;;12.82;;
28766;SDS011;15921;52.034;20.650;2023-02-23T05:47:05;27.40;;;12.52;;
28766;SDS011;15921;52.034;20.650;2023-02-23T05:49:31;30.80;;;12.98;;
28766;SDS011;15921;52.034;20.650;2023-02-23T05:51:57;29.95;;;12.55;;
28766;SDS011;15921;52.034;20.650;2023-02-23T05:54:22;33.25;;;12.95;;
28766;SDS011;15921;52.034;20.650;2023-02-23T05:56:48;30.05;;;12.68;;
28766;SDS011;15921;52.034;20.650;2023-02-23T05:59:14;29.92;;;12.63;;
28766;SDS011;15921;52.034;20.650;2023-02-23T06:01:41;28.05;;;12.75;;
28766;SDS011;15921;52.034;20.650;2023-02-23T06:04:07;33.25;;;13.57;;
28766;SDS011;15921;52.034;20.650;2023-02-23T06:06:33;25.90;;;11.07;;
28766;SDS011;15921;52.034;20.650;2023-02-23T06:08:59;31.15;;;12.85;;
28766;SDS011;15921;52.034;20.650;2023-02-23T06:11:25;29.52;;;12.18;;
28766;SDS011;15921;52.034;20.650;2023-02-23T06:13:51;32.47;;;12.55;;
28766;SDS011;15921;52.034;20.650;2023-02-23T06:16:17;36.00;;;13.68;;
28766;SDS011;15921;52.034;20.650;2023-02-23T06:18:42;30.23;;;13.23;;
28766;SDS011;15921;52.034;20.650;2023-02-23T06:21:08;29.52;;;13.68;;
28766;SDS011;15921;52.034;20.650;2023-02-23T06:23:34;39.08;;;15.50;;
28766;SDS011;15921;52.034;20.650;2023-02-23T06:25:59;40.40;;;16.33;;
28766;SDS011;15921;52.034;20.650;2023-02-23T06:28:26;33.70;;;14.38;;
28766;SDS011;15921;52.034;20.650;2023-02-23T06:30:52;36.38;;;14.20;;
28766;SDS011;15921;52.034;20.650;2023-02-23T06:33:19;30.92;;;13.55;;
28766;SDS011;15921;52.034;20.650;2023-02-23T06:35:45;36.10;;;15.73;;
28766;SDS011;15921;52.034;20.650;2023-02-23T06:38:11;39.00;;;18.58;;
28766;SDS011;15921;52.034;20.650;2023-02-23T06:40:37;33.20;;;15.70;;
28766;SDS011;15921;52.034;20.650;2023-02-23T06:43:03;34.25;;;15.93;;
28766;SDS011;15921;52.034;20.650;2023-02-23T06:45:29;34.42;;;14.55;;
28766;SDS011;15921;52.034;20.650;2023-02-23T06:47:55;36.90;;;13.95;;
28766;SDS011;15921;52.034;20.650;2023-02-23T06:50:25;31.65;;;13.50;;
28766;SDS011;15921;52.034;20.650;2023-02-23T06:52:51;44.42;;;14.80;;
28766;SDS011;15921;52.034;20.650;2023-02-23T06:55:17;32.13;;;14.70;;
28766;SDS011;15921;52.034;20.650;2023-02-23T06:57:43;35.20;;;15.05;;
28766;SDS011;15921;52.034;20.650;2023-02-23T07:00:09;31.27;;;14.07;;
28766;SDS011;15921;52.034;20.650;2023-02-23T07:02:39;32.22;;;13.07;;
28766;SDS011;15921;52.034;20.650;2023-02-23T07:05:06;33.03;;;14.80;;
28766;SDS011;15921;52.034;20.650;2023-02-23T07:07:32;32.22;;;14.07;;
28766;SDS011;15921;52.034;20.650;2023-02-23T07:09:57;30.67;;;14.52;;
28766;SDS011;15921;52.034;20.650;2023-02-23T07:12:23;28.45;;;13.23;;
28766;SDS011;15921;52.034;20.650;2023-02-23T07:14:48;37.28;;;16.13;;
28766;SDS011;15921;52.034;20.650;2023-02-23T07:17:14;51.95;;;23.73;;
28766;SDS011;15921;52.034;20.650;2023-02-23T07:19:41;58.90;;;25.60;;
28766;SDS011;15921;52.034;20.650;2023-02-23T07:22:07;48.72;;;19.25;;
28766;SDS011;15921;52.034;20.650;2023-02-23T07:24:33;39.63;;;15.93;;
28766;SDS011;15921;52.034;20.650;2023-02-23T07:26:58;53.53;;;26.00;;
28766;SDS011;15921;52.034;20.650;2023-02-23T07:29:24;38.33;;;16.55;;
28766;SDS011;15921;52.034;20.650;2023-02-23T07:31:52;40.70;;;18.75;;
28766;SDS011;15921;52.034;20.650;2023-02-23T07:34:17;61.88;;;28.35;;
28766;SDS011;15921;52.034;20.650;2023-02-23T07:36:43;54.90;;;24.98;;
28766;SDS011;15921;52.034;20.650;2023-02-23T07:39:08;33.05;;;14.90;;
28766;SDS011;15921;52.034;20.650;2023-02-23T07:41:34;29.05;;;13.15;;
28766;SDS011;15921;52.034;20.650;2023-02-23T07:44:00;27.00;;;12.02;;
28766;SDS011;15921;52.034;20.650;2023-02-23T07:46:26;25.05;;;10.90;;
28766;SDS011;15921;52.034;20.650;2023-02-23T07:48:51;22.98;;;10.63;;
28766;SDS011;15921;52.034;20.650;2023-02-23T07:51:17;23.08;;;10.98;;
28766;SDS011;15921;52.034;20.650;2023-02-23T07:53:43;23.80;;;11.10;;
28766;SDS011;15921;52.034;20.650;2023-02-23T07:56:09;28.90;;;12.00;;
28766;SDS011;15921;52.034;20.650;2023-02-23T07:58:37;20.80;;;10.63;;
28766;SDS011;15921;52.034;20.650;2023-02-23T08:01:08;21.98;;;10.85;;
28766;SDS011;15921;52.034;20.650;2023-02-23T08:03:34;23.85;;;10.95;;
28766;SDS011;15921;52.034;20.650;2023-02-23T08:06:00;24.05;;;11.02;;
28766;SDS011;15921;52.034;20.650;2023-02-23T08:08:26;23.23;;;10.55;;
28766;SDS011;15921;52.034;20.650;2023-02-23T08:10:59;23.73;;;10.85;;
28766;SDS011;15921;52.034;20.650;2023-02-23T08:13:25;22.90;;;10.07;;
28766;SDS011;15921;52.034;20.650;2023-02-23T08:15:51;24.17;;;10.60;;
28766;SDS011;15921;52.034;20.650;2023-02-23T08:18:17;22.67;;;10.82;;
28766;SDS011;15921;52.034;20.650;2023-02-23T08:20:42;21.27;;;10.48;;
28766;SDS011;15921;52.034;20.650;2023-02-23T08:23:08;22.92;;;10.13;;
28766;SDS011;15921;52.034;20.650;2023-02-23T08:25:35;19.05;;;9.88;;
28766;SDS011;15921;52.034;20.650;2023-02-23T08:28:01;28.58;;;11.15;;
28766;SDS011;15921;52.034;20.650;2023-02-23T08:30:28;22.38;;;10.65;;
28766;SDS011;15921;52.034;20.650;2023-02-23T08:32:55;21.65;;;11.18;;
28766;SDS011;15921;52.034;20.650;2023-02-23T08:35:20;21.45;;;10.60;;
28766;SDS011;15921;52.034;20.650;2023-02-23T08:37:46;26.27;;;10.95;;
28766;SDS011;15921;52.034;20.650;2023-02-23T08:40:12;22.40;;;10.07;;
28766;SDS011;15921;52.034;20.650;2023-02-23T08:42:42;22.27;;;11.15;;
28766;SDS011;15921;52.034;20.650;2023-02-23T08:45:08;27.13;;;11.18;;
28766;SDS011;15921;52.034;20.650;2023-02-23T08:47:35;20.27;;;9.70;;
28766;SDS011;15921;52.034;20.650;2023-02-23T08:50:00;22.23;;;10.50;;
28766;SDS011;15921;52.034;20.650;2023-02-23T08:52:27;23.67;;;11.15;;
28766;SDS011;15921;52.034;20.650;2023-02-23T08:54:52;18.90;;;10.18;;
28766;SDS011;15921;52.034;20.650;2023-02-23T08:57:19;18.35;;;9.57;;
28766;SDS011;15921;52.034;20.650;2023-02-23T08:59:45;22.35;;;10.18;;
28766;SDS011;15921;52.034;20.650;2023-02-23T09:02:12;19.83;;;9.60;;
28766;SDS011;15921;52.034;20.650;2023-02-23T09:04:38;23.20;;;10.00;;
28766;SDS011;15921;52.034;20.650;2023-02-23T09:07:08;18.35;;;9.80;;
28766;SDS011;15921;52.034;20.650;2023-02-23T09:09:38;20.65;;;10.13;;
28766;SDS011;15921;52.034;20.650;2023-02-23T09:12:03;17.17;;;9.00;;
28766;SDS011;15921;52.034;20.650;2023-02-23T09:14:29;17.33;;;8.48;;
28766;SDS011;15921;52.034;20.650;2023-02-23T09:16:56;21.80;;;8.82;;
28766;SDS011;15921;52.034;20.650;2023-02-23T09:19:21;20.38;;;9.80;;
28766;SDS011;15921;52.034;20.650;2023-02-23T09:21:47;20.05;;;9.48;;
28766;SDS011;15921;52.034;20.650;2023-02-23T09:24:13;19.98;;;9.68;;
28766;SDS011;15921;52.034;20.650;2023-02-23T09:26:38;19.80;;;9.63;;
28766;SDS011;15921;52.034;20.650;2023-02-23T09:29:06;16.50;;;9.07;;
28766;SDS011;15921;52.034;20.650;2023-02-23T09:31:32;16.70;;;9.70;;
28766;SDS011;15921;52.034;20.650;2023-02-23T09:33:58;17.65;;;8.93;;
28766;SDS011;15921;52.034;20.650;2023-02-23T09:36:26;18.05;;;9.25;;
28766;SDS011;15921;52.034;20.650;2023-02-23T09:38:54;24.13;;;10.55;;
28766;SDS011;15921;52.034;20.650;2023-02-23T09:47:03;15.52;;;8.00;;
28766;SDS011;15921;52.034;20.650;2023-02-23T09:49:38;17.42;;;8.93;;
28766;SDS011;15921;52.034;20.650;2023-02-23T09:52:09;17.80;;;9.13;;
28766;SDS011;15921;52.034;20.650;2023-02-23T09:54:41;18.17;;;8.75;;
28766;SDS011;15921;52.034;20.650;2023-02-23T09:57:09;17.83;;;9.15;;
28766;SDS011;15921;52.034;20.650;2023-02-23T09:59:39;20.02;;;8.38;;
28766;SDS011;15921;52.034;20.650;2023-02-23T10:02:18;18.55;;;8.88;;
28766;SDS011;15921;52.034;20.650;2023-02-23T10:05:03;18.63;;;9.38;;
28766;SDS011;15921;52.034;20.650;2023-02-23T10:18:39;17.17;;;8.57;;
28766;SDS011;15921;52.034;20.650;2023-02-23T10:21:15;18.17;;;8.45;;
28766;SDS011;15921;52.034;20.650;2023-02-23T10:24:11;16.95;;;8.65;;
28766;SDS011;15921;52.034;20.650;2023-02-23T10:27:01;16.83;;;8.52;;
28766;SDS011;15921;52.034;20.650;2023-02-23T10:29:35;15.13;;;8.02;;
28766;SDS011;15921;52.034;20.650;2023-02-23T10:32:06;16.88;;;8.80;;
28766;SDS011;15921;52.034;20.650;2023-02-23T10:34:38;19.33;;;9.10;;
28766;SDS011;15921;52.034;20.650;2023-02-23T10:37:05;15.40;;;8.27;;
28766;SDS011;15921;52.034;20.650;2023-02-23T10:39:35;18.02;;;9.13;;
28766;SDS011;15921;52.034;20.650;2023-02-23T10:42:04;16.83;;;8.70;;
28766;SDS011;15921;52.034;20.650;2023-02-23T10:44:36;16.02;;;8.02;;
28766;SDS011;15921;52.034;20.650;2023-02-23T10:47:05;17.33;;;8.95;;
28766;SDS011;15921;52.034;20.650;2023-02-23T10:49:45;16.23;;;8.60;;
28766;SDS011;15921;52.034;20.650;2023-02-23T10:52:20;18.77;;;7.72;;
28766;SDS011;15921;52.034;20.650;2023-02-23T10:54:53;14.73;;;7.85;;
28766;SDS011;15921;52.034;20.650;2023-02-23T11:02:32;17.80;;;7.90;;
28766;SDS011;15921;52.034;20.650;2023-02-23T11:05:00;18.13;;;8.10;;
28766;SDS011;15921;52.034;20.650;2023-02-23T11:07:30;15.45;;;8.50;;
28766;SDS011;15921;52.034;20.650;2023-02-23T11:09:58;16.60;;;8.23;;
28766;SDS011;15921;52.034;20.650;2023-02-23T11:12:42;15.18;;;7.47;;
28766;SDS011;15921;52.034;20.650;2023-02-23T11:15:50;15.32;;;7.95;;
28766;SDS011;15921;52.034;20.650;2023-02-23T11:18:02;16.42;;;7.75;;
28766;SDS011;15921;52.034;20.650;2023-02-23T11:20:30;13.20;;;7.40;;
28766;SDS011;15921;52.034;20.650;2023-02-23T11:23:10;15.45;;;7.55;;
28766;SDS011;15921;52.034;20.650;2023-02-23T11:25:42;14.65;;;7.90;;
28766;SDS011;15921;52.034;20.650;2023-02-23T11:28:18;16.85;;;8.02;;
28766;SDS011;15921;52.034;20.650;2023-02-23T11:30:54;16.25;;;8.10;;
28766;SDS011;15921;52.034;20.650;2023-02-23T11:33:22;16.48;;;8.13;;
28766;SDS011;15921;52.034;20.650;2023-02-23T11:36:00;19.35;;;8.23;;
28766;SDS011;15921;52.034;20.650;2023-02-23T11:38:40;17.33;;;7.68;;
28766;SDS011;15921;52.034;20.650;2023-02-23T11:41:14;15.10;;;8.05;;
28766;SDS011;15921;52.034;20.650;2023-02-23T11:43:47;16.88;;;7.47;;
28766;SDS011;15921;52.034;20.650;2023-02-23T11:46:14;14.60;;;7.20;;
28766;SDS011;15921;52.034;20.650;2023-02-23T11:48:43;16.70;;;8.23;;
28766;SDS011;15921;52.034;20.650;2023-02-23T11:51:24;14.55;;;7.25;;
28766;SDS011;15921;52.034;20.650;2023-02-23T11:53:56;16.90;;;7.30;;
28766;SDS011;15921;52.034;20.650;2023-02-23T11:56:24;16.83;;;8.07;;
28766;SDS011;15921;52.034;20.650;2023-02-23T11:58:55;19.77;;;8.15;;
28766;SDS011;15921;52.034;20.650;2023-02-23T12:01:37;18.10;;;7.90;;
28766;SDS011;15921;52.034;20.650;2023-02-23T12:04:05;17.43;;;8.87;;
28766;SDS011;15921;52.034;20.650;2023-02-23T12:06:36;20.73;;;8.30;;
28766;SDS011;15921;52.034;20.650;2023-02-23T12:11:47;19.15;;;8.75;;
28766;SDS011;15921;52.034;20.650;2023-02-23T12:17:24;16.67;;;8.00;;
28766;SDS011;15921;52.034;20.650;2023-02-23T12:22:21;13.73;;;7.43;;
28766;SDS011;15921;52.034;20.650;2023-02-23T12:25:02;17.30;;;7.13;;
28766;SDS011;15921;52.034;20.650;2023-02-23T12:31:00;13.65;;;7.35;;
28766;SDS011;15921;52.034;20.650;2023-02-23T12:33:43;15.27;;;7.55;;
28766;SDS011;15921;52.034;20.650;2023-02-23T12:36:21;17.92;;;8.02;;
28766;SDS011;15921;52.034;20.650;2023-02-23T12:39:07;17.02;;;8.40;;
28766;SDS011;15921;52.034;20.650;2023-02-23T12:41:58;13.75;;;7.32;;
28766;SDS011;15921;52.034;20.650;2023-02-23T12:49:39;19.63;;;7.53;;
28766;SDS011;15921;52.034;20.650;2023-02-23T12:52:11;14.88;;;7.80;;
28766;SDS011;15921;52.034;20.650;2023-02-23T12:54:43;14.82;;;7.72;;
28766;SDS011;15921;52.034;20.650;2023-02-23T13:03:29;15.77;;;8.02;;
28766;SDS011;15921;52.034;20.650;2023-02-23T13:06:19;17.35;;;7.80;;
28766;SDS011;15921;52.034;20.650;2023-02-23T13:09:01;16.63;;;7.93;;
28766;SDS011;15921;52.034;20.650;2023-02-23T13:21:06;18.08;;;8.27;;
28766;SDS011;15921;52.034;20.650;2023-02-23T13:23:26;18.95;;;8.45;;
28766;SDS011;15921;52.034;20.650;2023-02-23T13:31:59;17.02;;;7.72;;
28766;SDS011;15921;52.034;20.650;2023-02-23T13:34:27;17.23;;;8.05;;
28766;SDS011;15921;52.034;20.650;2023-02-23T13:36:57;15.75;;;7.72;;
28766;SDS011;15921;52.034;20.650;2023-02-23T13:50:21;16.98;;;8.30;;
28766;SDS011;15921;52.034;20.650;2023-02-23T13:52:51;13.27;;;7.13;;
28766;SDS011;15921;52.034;20.650;2023-02-23T13:55:32;19.23;;;8.75;;
28766;SDS011;15921;52.034;20.650;2023-02-23T13:58:04;18.80;;;8.38;;
28766;SDS011;15921;52.034;20.650;2023-02-23T14:00:39;15.20;;;8.18;;
28766;SDS011;15921;52.034;20.650;2023-02-23T14:03:06;21.42;;;8.73;;
28766;SDS011;15921;52.034;20.650;2023-02-23T14:05:44;17.67;;;8.02;;
28766;SDS011;15921;52.034;20.650;2023-02-23T14:08:27;20.90;;;9.15;;
28766;SDS011;15921;52.034;20.650;2023-02-23T14:11:00;17.67;;;8.13;;
28766;SDS011;15921;52.034;20.650;2023-02-23T14:13:30;21.45;;;8.60;;
28766;SDS011;15921;52.034;20.650;2023-02-23T14:19:03;16.48;;;8.07;;
28766;SDS011;15921;52.034;20.650;2023-02-23T14:21:42;14.68;;;7.90;;
28766;SDS011;15921;52.034;20.650;2023-02-23T14:24:22;17.08;;;8.27;;
28766;SDS011;15921;52.034;20.650;2023-02-23T14:32:39;22.90;;;9.07;;
28766;SDS011;15921;52.034;20.650;2023-02-23T14:35:34;16.48;;;8.77;;
28766;SDS011;15921;52.034;20.650;2023-02-23T14:37:58;17.77;;;9.32;;
28766;SDS011;15921;52.034;20.650;2023-02-23T14:40:48;22.25;;;10.75;;
28766;SDS011;15921;52.034;20.650;2023-02-23T14:46:38;19.50;;;9.43;;
28766;SDS011;15921;52.034;20.650;2023-02-23T14:49:06;19.08;;;9.48;;
28766;SDS011;15921;52.034;20.650;2023-02-23T14:51:39;20.88;;;9.32;;
28766;SDS011;15921;52.034;20.650;2023-02-23T14:54:10;23.33;;;10.43;;
28766;SDS011;15921;52.034;20.650;2023-02-23T14:56:46;21.00;;;10.63;;
28766;SDS011;15921;52.034;20.650;2023-02-23T14:59:17;21.52;;;9.80;;
28766;SDS011;15921;52.034;20.650;2023-02-23T15:01:47;21.73;;;9.77;;
28766;SDS011;15921;52.034;20.650;2023-02-23T15:04:18;20.35;;;9.00;;
28766;SDS011;15921;52.034;20.650;2023-02-23T15:06:47;19.52;;;9.25;;
28766;SDS011;15921;52.034;20.650;2023-02-23T15:12:12;25.50;;;9.77;;
28766;SDS011;15921;52.034;20.650;2023-02-23T15:14:51;21.45;;;9.23;;
28766;SDS011;15921;52.034;20.650;2023-02-23T15:17:20;25.10;;;10.43;;
28766;SDS011;15921;52.034;20.650;2023-02-23T15:19:49;27.77;;;10.63;;
28766;SDS011;15921;52.034;20.650;2023-02-23T15:22:23;23.88;;;11.35;;
28766;SDS011;15921;52.034;20.650;2023-02-23T15:24:54;31.08;;;12.10;;
28766;SDS011;15921;52.034;20.650;2023-02-23T15:27:22;27.23;;;11.90;;
28766;SDS011;15921;52.034;20.650;2023-02-23T15:29:53;26.35;;;13.55;;
28766;SDS011;15921;52.034;20.650;2023-02-23T15:32:22;39.35;;;18.13;;
28766;SDS011;15921;52.034;20.650;2023-02-23T15:34:52;42.42;;;19.98;;
28766;SDS011;15921;52.034;20.650;2023-02-23T15:40:15;26.95;;;12.55;;
28766;SDS011;15921;52.034;20.650;2023-02-23T15:42:47;24.08;;;11.02;;
28766;SDS011;15921;52.034;20.650;2023-02-23T15:45:17;18.20;;;9.23;;
28766;SDS011;15921;52.034;20.650;2023-02-23T15:47:47;26.50;;;11.90;;
28766;SDS011;15921;52.034;20.650;2023-02-23T15:50:20;50.75;;;19.77;;
28766;SDS011;15921;52.034;20.650;2023-02-23T15:52:51;40.95;;;18.35;;
28766;SDS011;15921;52.034;20.650;2023-02-23T15:58:18;80.05;;;27.73;;
28766;SDS011;15921;52.034;20.650;2023-02-23T16:00:49;68.20;;;25.13;;
28766;SDS011;15921;52.034;20.650;2023-02-23T16:03:24;62.10;;;23.50;;
28766;SDS011;15921;52.034;20.650;2023-02-23T16:05:56;51.88;;;21.75;;
28766;SDS011;15921;52.034;20.650;2023-02-23T16:08:59;63.05;;;25.92;;
28766;SDS011;15921;52.034;20.650;2023-02-23T16:11:48;53.53;;;23.20;;
28766;SDS011;15921;52.034;20.650;2023-02-23T16:14:42;43.10;;;19.92;;
28766;SDS011;15921;52.034;20.650;2023-02-23T16:17:22;50.83;;;23.63;;
28766;SDS011;15921;52.034;20.650;2023-02-23T16:19:49;47.53;;;20.75;;
28766;SDS011;15921;52.034;20.650;2023-02-23T16:22:17;41.83;;;17.73;;
28766;SDS011;15921;52.034;20.650;2023-02-23T16:24:48;54.15;;;23.77;;
28766;SDS011;15921;52.034;20.650;2023-02-23T16:27:25;49.88;;;20.75;;
28766;SDS011;15921;52.034;20.650;2023-02-23T16:30:32;33.45;;;17.20;;
28766;SDS011;15921;52.034;20.650;2023-02-23T16:32:48;33.42;;;14.10;;
28766;SDS011;15921;52.034;20.650;2023-02-23T16:35:37;31.70;;;14.07;;
28766;SDS011;15921;52.034;20.650;2023-02-23T16:38:25;31.38;;;14.38;;
28766;SDS011;15921;52.034;20.650;2023-02-23T16:40:57;33.97;;;14.70;;
28766;SDS011;15921;52.034;20.650;2023-02-23T16:43:22;35.20;;;15.07;;
28766;SDS011;15921;52.034;20.650;2023-02-23T16:45:48;37.30;;;16.52;;
28766;SDS011;15921;52.034;20.650;2023-02-23T16:48:15;35.22;;;14.13;;